sensor_id;sensor_type;location;lat;lon;timestamp;P1;durP1;ratioP1;P2;durP2;ratioP2
37365;SDS011;23239;51.504;7.456;2022-10-17T00:01:44;6.5;;;5;;
37365;SDS011;23239;51.504;7.456;2022-10-17T00:06:44;9.4;;;5.2;;
37365;SDS011;23239;51.504;7.456;2022-10-17T00:11:44;6.3;;;4.8;;
37365;SDS011;23239;51.504;7.456;2022-10-17T00:16:44;6.9;;;5.1;;
37365;SDS011;23239;51.504;7.456;2022-10-17T00:21:44;7.1;;;5.2;;
37365;SDS011;23239;51.504;7.456;2022-10-17T00:26:44;8.9;;;5;;
37365;SDS011;23239;51.504;7.456;2022-10-17T00:31:44;6.6;;;4.8;;
37365;SDS011;23239;51.504;7.456;2022-10-17T00:36:44;7.6;;;4.9;;
37365;SDS011;23239;51.504;7.456;2022-10-17T00:41:44;7.6;;;5.2;;
37365;SDS011;23239;51.504;7.456;2022-10-17T00:46:44;8.8;;;5.1;;
37365;SDS011;23239;51.504;7.456;2022-10-17T00:51:44;10.1;;;4.6;;
37365;SDS011;23239;51.504;7.456;2022-10-17T00:56:44;6.7;;;4.9;;
37365;SDS011;23239;51.504;7.456;2022-10-17T01:01:55;6.6;;;4.7;;
37365;SDS011;23239;51.504;7.456;2022-10-17T01:06:44;6.2;;;4.9;;
37365;SDS011;23239;51.504;7.456;2022-10-17T01:11:44;6.6;;;5;;
37365;SDS011;23239;51.504;7.456;2022-10-17T01:16:44;8.3;;;5.1;;
37365;SDS011;23239;51.504;7.456;2022-10-17T01:21:46;6.2;;;5;;
37365;SDS011;23239;51.504;7.456;2022-10-17T01:26:50;7;;;4.6;;
37365;SDS011;23239;51.504;7.456;2022-10-17T01:31:44;6.9;;;4.7;;
37365;SDS011;23239;51.504;7.456;2022-10-17T01:36:45;6.2;;;4.6;;
37365;SDS011;23239;51.504;7.456;2022-10-17T01:41:45;6.6;;;4.7;;
37365;SDS011;23239;51.504;7.456;2022-10-17T01:46:44;6.2;;;4.5;;
37365;SDS011;23239;51.504;7.456;2022-10-17T01:51:44;9.2;;;4.6;;
37365;SDS011;23239;51.504;7.456;2022-10-17T01:56:44;9.6;;;4.8;;
37365;SDS011;23239;51.504;7.456;2022-10-17T02:01:44;8;;;4.7;;
37365;SDS011;23239;51.504;7.456;2022-10-17T02:06:44;6.2;;;4.8;;
37365;SDS011;23239;51.504;7.456;2022-10-17T02:11:45;7.1;;;4.4;;
37365;SDS011;23239;51.504;7.456;2022-10-17T02:16:46;6;;;4.5;;
37365;SDS011;23239;51.504;7.456;2022-10-17T02:21:44;7;;;4.8;;
37365;SDS011;23239;51.504;7.456;2022-10-17T02:26:45;8.4;;;5;;
37365;SDS011;23239;51.504;7.456;2022-10-17T02:31:45;5.8;;;4.4;;
37365;SDS011;23239;51.504;7.456;2022-10-17T02:36:45;6.5;;;4.6;;
37365;SDS011;23239;51.504;7.456;2022-10-17T02:41:44;8.1;;;4.1;;
37365;SDS011;23239;51.504;7.456;2022-10-17T02:46:44;8.1;;;4.4;;
37365;SDS011;23239;51.504;7.456;2022-10-17T02:51:44;8.6;;;4.8;;
37365;SDS011;23239;51.504;7.456;2022-10-17T02:56:45;5.5;;;4.7;;
37365;SDS011;23239;51.504;7.456;2022-10-17T03:01:44;6;;;4.1;;
37365;SDS011;23239;51.504;7.456;2022-10-17T03:06:44;8.2;;;4.7;;
37365;SDS011;23239;51.504;7.456;2022-10-17T03:11:44;5.9;;;4.6;;
37365;SDS011;23239;51.504;7.456;2022-10-17T03:16:44;7.5;;;4.3;;
37365;SDS011;23239;51.504;7.456;2022-10-17T03:21:44;6;;;4.5;;
37365;SDS011;23239;51.504;7.456;2022-10-17T03:26:44;10.1;;;4.9;;
37365;SDS011;23239;51.504;7.456;2022-10-17T03:31:44;6.4;;;4.4;;
37365;SDS011;23239;51.504;7.456;2022-10-17T03:36:44;7.5;;;4.6;;
37365;SDS011;23239;51.504;7.456;2022-10-17T03:41:44;8.6;;;4.3;;
37365;SDS011;23239;51.504;7.456;2022-10-17T03:46:44;7.8;;;4.8;;
37365;SDS011;23239;51.504;7.456;2022-10-17T03:51:44;9;;;4.4;;
37365;SDS011;23239;51.504;7.456;2022-10-17T03:56:44;7.5;;;4.2;;
37365;SDS011;23239;51.504;7.456;2022-10-17T04:01:44;7.3;;;4.3;;
37365;SDS011;23239;51.504;7.456;2022-10-17T04:06:44;10.1;;;4.5;;
37365;SDS011;23239;51.504;7.456;2022-10-17T04:11:44;7.5;;;4.4;;
37365;SDS011;23239;51.504;7.456;2022-10-17T04:16:44;8.3;;;4.7;;
37365;SDS011;23239;51.504;7.456;2022-10-17T04:21:44;5.6;;;4.2;;
37365;SDS011;23239;51.504;7.456;2022-10-17T04:26:44;9;;;4.5;;
37365;SDS011;23239;51.504;7.456;2022-10-17T04:31:44;9.8;;;4.5;;
37365;SDS011;23239;51.504;7.456;2022-10-17T04:36:44;7.8;;;4.2;;
37365;SDS011;23239;51.504;7.456;2022-10-17T04:41:44;7.5;;;4.3;;
37365;SDS011;23239;51.504;7.456;2022-10-17T04:46:44;6;;;4.2;;
37365;SDS011;23239;51.504;7.456;2022-10-17T04:51:44;6.6;;;4;;
37365;SDS011;23239;51.504;7.456;2022-10-17T04:56:44;6.6;;;4.2;;
37365;SDS011;23239;51.504;7.456;2022-10-17T05:01:44;8.2;;;4.3;;
37365;SDS011;23239;51.504;7.456;2022-10-17T05:06:44;8.7;;;4.4;;
37365;SDS011;23239;51.504;7.456;2022-10-17T05:11:44;8.9;;;4.9;;
37365;SDS011;23239;51.504;7.456;2022-10-17T05:16:44;11.9;;;4.2;;
37365;SDS011;23239;51.504;7.456;2022-10-17T05:21:44;5.7;;;3.9;;
37365;SDS011;23239;51.504;7.456;2022-10-17T05:26:44;9;;;4.1;;
37365;SDS011;23239;51.504;7.456;2022-10-17T05:31:44;5.7;;;3.8;;
37365;SDS011;23239;51.504;7.456;2022-10-17T05:36:44;5.3;;;4;;
37365;SDS011;23239;51.504;7.456;2022-10-17T05:41:44;5.8;;;4.2;;
37365;SDS011;23239;51.504;7.456;2022-10-17T05:46:44;6.6;;;3.8;;
37365;SDS011;23239;51.504;7.456;2022-10-17T05:51:44;7.3;;;4;;
37365;SDS011;23239;51.504;7.456;2022-10-17T05:56:44;7.3;;;3.8;;
37365;SDS011;23239;51.504;7.456;2022-10-17T06:01:44;6.5;;;3.9;;
37365;SDS011;23239;51.504;7.456;2022-10-17T06:06:44;6.3;;;3.5;;
37365;SDS011;23239;51.504;7.456;2022-10-17T06:11:44;6.9;;;4;;
37365;SDS011;23239;51.504;7.456;2022-10-17T06:16:44;8;;;3.8;;
37365;SDS011;23239;51.504;7.456;2022-10-17T06:21:44;5.4;;;3.6;;
37365;SDS011;23239;51.504;7.456;2022-10-17T06:26:44;8.1;;;3.7;;
37365;SDS011;23239;51.504;7.456;2022-10-17T06:31:44;4.8;;;3.6;;
37365;SDS011;23239;51.504;7.456;2022-10-17T06:36:44;5.4;;;3.6;;
37365;SDS011;23239;51.504;7.456;2022-10-17T06:41:44;7;;;3.5;;
37365;SDS011;23239;51.504;7.456;2022-10-17T06:46:44;12.7;;;3.8;;
37365;SDS011;23239;51.504;7.456;2022-10-17T06:51:44;8.5;;;3.9;;
37365;SDS011;23239;51.504;7.456;2022-10-17T06:56:44;8.8;;;3.8;;
37365;SDS011;23239;51.504;7.456;2022-10-17T07:01:44;6.7;;;3.8;;
37365;SDS011;23239;51.504;7.456;2022-10-17T07:06:44;7.2;;;3.7;;
37365;SDS011;23239;51.504;7.456;2022-10-17T07:11:44;9.7;;;3.7;;
37365;SDS011;23239;51.504;7.456;2022-10-17T07:16:44;8.3;;;3.4;;
37365;SDS011;23239;51.504;7.456;2022-10-17T07:21:44;5.9;;;3.3;;
37365;SDS011;23239;51.504;7.456;2022-10-17T07:26:44;5.9;;;3.5;;
37365;SDS011;23239;51.504;7.456;2022-10-17T07:31:44;7.2;;;3.4;;
37365;SDS011;23239;51.504;7.456;2022-10-17T07:36:44;10.1;;;3.6;;
37365;SDS011;23239;51.504;7.456;2022-10-17T07:41:44;6.5;;;3.5;;
37365;SDS011;23239;51.504;7.456;2022-10-17T07:46:44;7;;;3.4;;
37365;SDS011;23239;51.504;7.456;2022-10-17T07:51:44;5.9;;;3;;
37365;SDS011;23239;51.504;7.456;2022-10-17T07:56:44;6.4;;;3.6;;
37365;SDS011;23239;51.504;7.456;2022-10-17T08:01:44;3.7;;;3.1;;
37365;SDS011;23239;51.504;7.456;2022-10-17T08:06:44;6.7;;;3.4;;
37365;SDS011;23239;51.504;7.456;2022-10-17T08:11:44;5.9;;;2.9;;
37365;SDS011;23239;51.504;7.456;2022-10-17T08:16:44;5.3;;;3.3;;
37365;SDS011;23239;51.504;7.456;2022-10-17T08:21:44;6;;;3.1;;
37365;SDS011;23239;51.504;7.456;2022-10-17T08:26:44;6;;;3.1;;
37365;SDS011;23239;51.504;7.456;2022-10-17T08:31:44;6.6;;;3.2;;
37365;SDS011;23239;51.504;7.456;2022-10-17T08:36:44;7.5;;;3.4;;
37365;SDS011;23239;51.504;7.456;2022-10-17T08:41:48;7.1;;;3.1;;
37365;SDS011;23239;51.504;7.456;2022-10-17T08:46:45;5.5;;;3;;
37365;SDS011;23239;51.504;7.456;2022-10-17T08:51:46;7;;;3.1;;
37365;SDS011;23239;51.504;7.456;2022-10-17T08:56:44;5.7;;;3.2;;
37365;SDS011;23239;51.504;7.456;2022-10-17T09:01:45;5.2;;;3.1;;
37365;SDS011;23239;51.504;7.456;2022-10-17T09:06:45;10.2;;;3.3;;
37365;SDS011;23239;51.504;7.456;2022-10-17T09:11:47;5.7;;;2.8;;
37365;SDS011;23239;51.504;7.456;2022-10-17T09:16:48;7;;;2.7;;
37365;SDS011;23239;51.504;7.456;2022-10-17T09:21:44;5.2;;;2.7;;
37365;SDS011;23239;51.504;7.456;2022-10-17T09:26:44;7.2;;;2.8;;
37365;SDS011;23239;51.504;7.456;2022-10-17T09:31:44;6.9;;;3;;
37365;SDS011;23239;51.504;7.456;2022-10-17T09:36:44;5.9;;;2.6;;
37365;SDS011;23239;51.504;7.456;2022-10-17T09:41:46;6.7;;;3;;
37365;SDS011;23239;51.504;7.456;2022-10-17T09:46:48;11.4;;;2.9;;
37365;SDS011;23239;51.504;7.456;2022-10-17T09:51:44;5.8;;;2.6;;
37365;SDS011;23239;51.504;7.456;2022-10-17T09:57:00;7.4;;;2.5;;
37365;SDS011;23239;51.504;7.456;2022-10-17T10:01:44;5.3;;;2.3;;
37365;SDS011;23239;51.504;7.456;2022-10-17T10:06:59;9.1;;;2.6;;
37365;SDS011;23239;51.504;7.456;2022-10-17T10:11:45;4.3;;;2.5;;
37365;SDS011;23239;51.504;7.456;2022-10-17T10:16:44;5.9;;;2.7;;
37365;SDS011;23239;51.504;7.456;2022-10-17T10:21:48;8.2;;;2.9;;
37365;SDS011;23239;51.504;7.456;2022-10-17T10:26:45;7.4;;;2.5;;
37365;SDS011;23239;51.504;7.456;2022-10-17T10:31:44;4.4;;;2.6;;
37365;SDS011;23239;51.504;7.456;2022-10-17T10:36:45;8.1;;;2.6;;
37365;SDS011;23239;51.504;7.456;2022-10-17T10:41:44;6.4;;;2.6;;
37365;SDS011;23239;51.504;7.456;2022-10-17T10:46:44;8.8;;;3;;
37365;SDS011;23239;51.504;7.456;2022-10-17T10:51:45;6.1;;;2.4;;
37365;SDS011;23239;51.504;7.456;2022-10-17T10:56:45;8;;;2.8;;
37365;SDS011;23239;51.504;7.456;2022-10-17T11:01:45;5.6;;;2.7;;
37365;SDS011;23239;51.504;7.456;2022-10-17T11:06:44;5.3;;;2.9;;
37365;SDS011;23239;51.504;7.456;2022-10-17T11:11:44;6;;;2.9;;
37365;SDS011;23239;51.504;7.456;2022-10-17T11:16:45;5.2;;;2.7;;
37365;SDS011;23239;51.504;7.456;2022-10-17T11:21:45;6.5;;;2.9;;
37365;SDS011;23239;51.504;7.456;2022-10-17T11:26:45;6.3;;;2.8;;
37365;SDS011;23239;51.504;7.456;2022-10-17T11:31:46;5.9;;;2.7;;
37365;SDS011;23239;51.504;7.456;2022-10-17T11:36:44;8.5;;;3;;
37365;SDS011;23239;51.504;7.456;2022-10-17T11:41:45;6.8;;;2.9;;
37365;SDS011;23239;51.504;7.456;2022-10-17T11:46:44;11.5;;;3;;
37365;SDS011;23239;51.504;7.456;2022-10-17T11:51:44;5.7;;;2.7;;
37365;SDS011;23239;51.504;7.456;2022-10-17T11:56:46;5.7;;;2.7;;
37365;SDS011;23239;51.504;7.456;2022-10-17T12:01:45;6.4;;;2.7;;
37365;SDS011;23239;51.504;7.456;2022-10-17T12:06:47;4.6;;;2.8;;
37365;SDS011;23239;51.504;7.456;2022-10-17T12:11:45;7;;;2.8;;
37365;SDS011;23239;51.504;7.456;2022-10-17T12:16:44;9.2;;;3.1;;
37365;SDS011;23239;51.504;7.456;2022-10-17T12:21:52;5.7;;;2.8;;
37365;SDS011;23239;51.504;7.456;2022-10-17T12:26:44;5.4;;;2.4;;
37365;SDS011;23239;51.504;7.456;2022-10-17T12:31:44;5.4;;;2.5;;
37365;SDS011;23239;51.504;7.456;2022-10-17T12:36:44;8.6;;;2.9;;
37365;SDS011;23239;51.504;7.456;2022-10-17T12:41:52;7.8;;;2.7;;
37365;SDS011;23239;51.504;7.456;2022-10-17T12:46:46;6.4;;;2.6;;
37365;SDS011;23239;51.504;7.456;2022-10-17T12:52:17;9;;;3.6;;
37365;SDS011;23239;51.504;7.456;2022-10-17T12:56:44;6.2;;;2.9;;
37365;SDS011;23239;51.504;7.456;2022-10-17T13:01:45;6.3;;;2.5;;
37365;SDS011;23239;51.504;7.456;2022-10-17T13:06:44;6.3;;;3.3;;
37365;SDS011;23239;51.504;7.456;2022-10-17T13:11:44;7.5;;;3.2;;
37365;SDS011;23239;51.504;7.456;2022-10-17T13:16:49;7.2;;;3;;
37365;SDS011;23239;51.504;7.456;2022-10-17T13:21:49;6.5;;;3;;
37365;SDS011;23239;51.504;7.456;2022-10-17T13:26:44;4.4;;;2.7;;
37365;SDS011;23239;51.504;7.456;2022-10-17T13:31:44;8.7;;;4.1;;
37365;SDS011;23239;51.504;7.456;2022-10-17T13:36:45;7.8;;;3.7;;
37365;SDS011;23239;51.504;7.456;2022-10-17T13:41:44;7.1;;;3.2;;
37365;SDS011;23239;51.504;7.456;2022-10-17T13:46:44;7.1;;;3.5;;
37365;SDS011;23239;51.504;7.456;2022-10-17T13:51:45;6.9;;;3.6;;
37365;SDS011;23239;51.504;7.456;2022-10-17T13:56:44;5.2;;;3.3;;
37365;SDS011;23239;51.504;7.456;2022-10-17T14:01:44;5.6;;;3.3;;
37365;SDS011;23239;51.504;7.456;2022-10-17T14:06:44;9.1;;;3.5;;
37365;SDS011;23239;51.504;7.456;2022-10-17T14:11:44;9.3;;;3.7;;
37365;SDS011;23239;51.504;7.456;2022-10-17T14:16:44;9.2;;;3.8;;
37365;SDS011;23239;51.504;7.456;2022-10-17T14:21:46;7.9;;;3.6;;
37365;SDS011;23239;51.504;7.456;2022-10-17T14:26:45;7.6;;;3.4;;
37365;SDS011;23239;51.504;7.456;2022-10-17T14:31:44;5.8;;;3.3;;
37365;SDS011;23239;51.504;7.456;2022-10-17T14:36:44;8.6;;;3.4;;
37365;SDS011;23239;51.504;7.456;2022-10-17T14:41:44;6.9;;;3.5;;
37365;SDS011;23239;51.504;7.456;2022-10-17T14:46:44;7.3;;;4;;
37365;SDS011;23239;51.504;7.456;2022-10-17T14:52:08;7.7;;;3.5;;
37365;SDS011;23239;51.504;7.456;2022-10-17T14:56:47;6.7;;;3.3;;
37365;SDS011;23239;51.504;7.456;2022-10-17T15:01:44;9;;;3.2;;
37365;SDS011;23239;51.504;7.456;2022-10-17T15:06:44;8;;;4.1;;
37365;SDS011;23239;51.504;7.456;2022-10-17T15:11:44;8.8;;;3.3;;
37365;SDS011;23239;51.504;7.456;2022-10-17T15:16:44;7.2;;;3.6;;
37365;SDS011;23239;51.504;7.456;2022-10-17T15:21:44;10.4;;;3.9;;
37365;SDS011;23239;51.504;7.456;2022-10-17T15:26:44;9.3;;;3.8;;
37365;SDS011;23239;51.504;7.456;2022-10-17T15:31:44;6;;;3.5;;
37365;SDS011;23239;51.504;7.456;2022-10-17T15:36:47;8;;;3.5;;
37365;SDS011;23239;51.504;7.456;2022-10-17T15:41:44;6.9;;;3.8;;
37365;SDS011;23239;51.504;7.456;2022-10-17T15:46:44;11.8;;;4.3;;
37365;SDS011;23239;51.504;7.456;2022-10-17T15:51:44;9.1;;;3.7;;
37365;SDS011;23239;51.504;7.456;2022-10-17T15:56:46;8.4;;;4.4;;
37365;SDS011;23239;51.504;7.456;2022-10-17T16:01:44;10;;;4.7;;
37365;SDS011;23239;51.504;7.456;2022-10-17T16:06:44;9.4;;;4.7;;
37365;SDS011;23239;51.504;7.456;2022-10-17T16:11:44;8.8;;;4.8;;
37365;SDS011;23239;51.504;7.456;2022-10-17T16:16:44;8.2;;;4.4;;
37365;SDS011;23239;51.504;7.456;2022-10-17T16:21:44;9.6;;;5.5;;
37365;SDS011;23239;51.504;7.456;2022-10-17T16:26:44;10;;;4.7;;
37365;SDS011;23239;51.504;7.456;2022-10-17T16:31:44;11.3;;;5.4;;
37365;SDS011;23239;51.504;7.456;2022-10-17T16:36:44;12.1;;;4.8;;
37365;SDS011;23239;51.504;7.456;2022-10-17T16:41:44;9.6;;;5.1;;
37365;SDS011;23239;51.504;7.456;2022-10-17T16:46:44;9.3;;;5;;
37365;SDS011;23239;51.504;7.456;2022-10-17T16:51:44;13.1;;;5.3;;
37365;SDS011;23239;51.504;7.456;2022-10-17T16:56:44;12.3;;;5.5;;
37365;SDS011;23239;51.504;7.456;2022-10-17T17:01:44;11.2;;;6.2;;
37365;SDS011;23239;51.504;7.456;2022-10-17T17:06:44;10.2;;;6.1;;
37365;SDS011;23239;51.504;7.456;2022-10-17T17:11:44;12.2;;;6.5;;
37365;SDS011;23239;51.504;7.456;2022-10-17T17:16:44;11.1;;;6.2;;
37365;SDS011;23239;51.504;7.456;2022-10-17T17:21:44;13.3;;;6.8;;
37365;SDS011;23239;51.504;7.456;2022-10-17T17:26:44;14.7;;;7.2;;
37365;SDS011;23239;51.504;7.456;2022-10-17T17:31:44;12.3;;;6.2;;
37365;SDS011;23239;51.504;7.456;2022-10-17T17:36:44;11;;;4.7;;
37365;SDS011;23239;51.504;7.456;2022-10-17T17:41:44;10.3;;;5.2;;
37365;SDS011;23239;51.504;7.456;2022-10-17T17:46:44;9.4;;;5.7;;
37365;SDS011;23239;51.504;7.456;2022-10-17T17:51:44;10.1;;;6.3;;
37365;SDS011;23239;51.504;7.456;2022-10-17T17:56:44;13.8;;;7.1;;
37365;SDS011;23239;51.504;7.456;2022-10-17T18:01:44;13.4;;;7.5;;
37365;SDS011;23239;51.504;7.456;2022-10-17T18:06:44;11.6;;;7.1;;
37365;SDS011;23239;51.504;7.456;2022-10-17T18:11:44;13.3;;;7.2;;
37365;SDS011;23239;51.504;7.456;2022-10-17T18:16:44;14.1;;;8.3;;
37365;SDS011;23239;51.504;7.456;2022-10-17T18:21:44;15.1;;;8;;
37365;SDS011;23239;51.504;7.456;2022-10-17T18:26:44;12.3;;;8.2;;
37365;SDS011;23239;51.504;7.456;2022-10-17T18:31:44;13.1;;;8.2;;
37365;SDS011;23239;51.504;7.456;2022-10-17T18:36:44;12.6;;;8.1;;
37365;SDS011;23239;51.504;7.456;2022-10-17T18:41:44;13;;;8.9;;
37365;SDS011;23239;51.504;7.456;2022-10-17T18:46:44;13;;;8;;
37365;SDS011;23239;51.504;7.456;2022-10-17T18:51:44;11.4;;;7.7;;
37365;SDS011;23239;51.504;7.456;2022-10-17T18:56:44;14.1;;;9.1;;
37365;SDS011;23239;51.504;7.456;2022-10-17T19:01:44;11.4;;;8.1;;
37365;SDS011;23239;51.504;7.456;2022-10-17T19:06:44;11.7;;;7.6;;
37365;SDS011;23239;51.504;7.456;2022-10-17T19:11:44;13.6;;;7.2;;
37365;SDS011;23239;51.504;7.456;2022-10-17T19:16:45;13.5;;;6.5;;
37365;SDS011;23239;51.504;7.456;2022-10-17T19:21:44;10.5;;;6.2;;
37365;SDS011;23239;51.504;7.456;2022-10-17T19:26:44;7;;;5;;
37365;SDS011;23239;51.504;7.456;2022-10-17T19:31:44;9.5;;;4.9;;
37365;SDS011;23239;51.504;7.456;2022-10-17T19:36:44;8.5;;;4.2;;
37365;SDS011;23239;51.504;7.456;2022-10-17T19:41:45;9.9;;;4.3;;
37365;SDS011;23239;51.504;7.456;2022-10-17T19:46:44;6.8;;;3.9;;
37365;SDS011;23239;51.504;7.456;2022-10-17T19:51:44;7.8;;;4.6;;
37365;SDS011;23239;51.504;7.456;2022-10-17T19:56:44;7.2;;;4;;
37365;SDS011;23239;51.504;7.456;2022-10-17T20:01:44;5.6;;;3.4;;
37365;SDS011;23239;51.504;7.456;2022-10-17T20:06:44;6.7;;;4;;
37365;SDS011;23239;51.504;7.456;2022-10-17T20:11:44;5.7;;;3.8;;
37365;SDS011;23239;51.504;7.456;2022-10-17T20:16:44;5.9;;;4.3;;
37365;SDS011;23239;51.504;7.456;2022-10-17T20:21:44;10.1;;;4.6;;
37365;SDS011;23239;51.504;7.456;2022-10-17T20:26:44;6.7;;;4.6;;
37365;SDS011;23239;51.504;7.456;2022-10-17T20:31:44;7.9;;;4.6;;
37365;SDS011;23239;51.504;7.456;2022-10-17T20:36:44;8.8;;;5.2;;
37365;SDS011;23239;51.504;7.456;2022-10-17T20:41:45;9.3;;;4.6;;
37365;SDS011;23239;51.504;7.456;2022-10-17T20:46:44;7.8;;;5.2;;
37365;SDS011;23239;51.504;7.456;2022-10-17T20:51:44;9.2;;;5.1;;
37365;SDS011;23239;51.504;7.456;2022-10-17T20:56:44;9;;;4.9;;
37365;SDS011;23239;51.504;7.456;2022-10-17T21:01:44;6.4;;;5.2;;
37365;SDS011;23239;51.504;7.456;2022-10-17T21:06:44;5.9;;;4.6;;
37365;SDS011;23239;51.504;7.456;2022-10-17T21:11:44;7.5;;;4.7;;
37365;SDS011;23239;51.504;7.456;2022-10-17T21:16:44;7.4;;;4.1;;
37365;SDS011;23239;51.504;7.456;2022-10-17T21:21:45;9.3;;;3.9;;
37365;SDS011;23239;51.504;7.456;2022-10-17T21:26:45;5.7;;;3.2;;
37365;SDS011;23239;51.504;7.456;2022-10-17T21:31:44;6.5;;;3.9;;
37365;SDS011;23239;51.504;7.456;2022-10-17T21:36:44;7;;;4;;
37365;SDS011;23239;51.504;7.456;2022-10-17T21:41:44;6.8;;;3.9;;
37365;SDS011;23239;51.504;7.456;2022-10-17T21:46:44;6.2;;;3.6;;
37365;SDS011;23239;51.504;7.456;2022-10-17T21:51:44;6.8;;;3.5;;
37365;SDS011;23239;51.504;7.456;2022-10-17T21:56:44;5.4;;;3.7;;
37365;SDS011;23239;51.504;7.456;2022-10-17T22:01:44;5.8;;;3.4;;
37365;SDS011;23239;51.504;7.456;2022-10-17T22:06:45;5.6;;;3.8;;
37365;SDS011;23239;51.504;7.456;2022-10-17T22:11:45;7.4;;;3.9;;
37365;SDS011;23239;51.504;7.456;2022-10-17T22:16:45;7.7;;;4.3;;
37365;SDS011;23239;51.504;7.456;2022-10-17T22:21:44;7.4;;;4.2;;
37365;SDS011;23239;51.504;7.456;2022-10-17T22:26:44;7.9;;;4.6;;
37365;SDS011;23239;51.504;7.456;2022-10-17T22:31:44;6.3;;;4.3;;
37365;SDS011;23239;51.504;7.456;2022-10-17T22:36:44;4.8;;;3.6;;
37365;SDS011;23239;51.504;7.456;2022-10-17T22:41:44;6.2;;;3.6;;
37365;SDS011;23239;51.504;7.456;2022-10-17T22:46:44;6.7;;;3.6;;
37365;SDS011;23239;51.504;7.456;2022-10-17T22:51:44;4.5;;;3.3;;
37365;SDS011;23239;51.504;7.456;2022-10-17T22:56:44;4.3;;;3.4;;
37365;SDS011;23239;51.504;7.456;2022-10-17T23:01:44;5.6;;;3.5;;
37365;SDS011;23239;51.504;7.456;2022-10-17T23:06:44;5.4;;;3;;
37365;SDS011;23239;51.504;7.456;2022-10-17T23:11:44;5.2;;;2.5;;
37365;SDS011;23239;51.504;7.456;2022-10-17T23:16:44;4.8;;;3;;
37365;SDS011;23239;51.504;7.456;2022-10-17T23:21:44;5;;;2.7;;
37365;SDS011;23239;51.504;7.456;2022-10-17T23:26:44;5.3;;;3;;
37365;SDS011;23239;51.504;7.456;2022-10-17T23:31:44;4.6;;;2.5;;
37365;SDS011;23239;51.504;7.456;2022-10-17T23:36:44;4.3;;;2.5;;
37365;SDS011;23239;51.504;7.456;2022-10-17T23:41:44;3.9;;;2.5;;
37365;SDS011;23239;51.504;7.456;2022-10-17T23:46:44;3.8;;;2.5;;
37365;SDS011;23239;51.504;7.456;2022-10-17T23:51:44;4.4;;;2.7;;
37365;SDS011;23239;51.504;7.456;2022-10-17T23:56:44;4.2;;;2.7;;
